Time;durP1;ratioP1;P1;durP2;ratioP2;P2;SDS_P1;SDS_P2;PMS_P1;PMS_P2;Temp;Humidity;BMP_temperature;BMP_pressure;BME280_temperature;BME280_humidity;BME280_pressure;Samples;Min_cycle;Max_cycle;Signal;HPM_P1;HPM_P2
2022/07/19 00:01:33;;;;;;;8.05;2.28;;;;;;;-144.47;42.14;53030.88;4971558;28;20033;-68
2022/07/19 00:03:59;;;;;;;6.50;1.52;;;;;;;-144.47;41.97;53052.72;4977461;28;20406;-66
2022/07/19 00:06:24;;;;;;;11.48;1.80;;;;;;;-144.47;41.90;53060.66;4975459;28;20483;-69
2022/07/19 00:08:50;;;;;;;5.47;1.85;;;;;;;-144.47;42.11;53042.78;4982548;28;20030;-65
2022/07/19 00:11:16;;;;;;;9.02;2.10;;;;;;;-144.47;42.32;53052.72;4982543;28;20030;-68
2022/07/19 00:13:41;;;;;;;13.20;2.40;;;;;;;-144.47;42.11;53062.66;4982138;28;20031;-69
2022/07/19 00:16:06;;;;;;;17.95;1.67;;;;;;;-144.47;42.24;53036.84;4969709;28;20042;-65
2022/07/19 00:18:32;;;;;;;9.70;1.73;;;;;;;-144.47;42.23;53024.91;4982433;28;20067;-70
2022/07/19 00:20:57;;;;;;;5.75;2.00;;;;;;;-144.47;42.41;53050.75;4970237;28;20114;-68
2022/07/19 00:23:22;;;;;;;4.57;1.63;;;;;;;-144.47;42.42;53018.97;4983020;28;20388;-69
2022/07/19 00:25:48;;;;;;;8.15;1.70;;;;;;;-144.47;42.73;53062.66;4970576;28;20188;-67
2022/07/19 00:28:13;;;;;;;6.32;1.95;;;;;;;-144.47;42.86;53072.59;4987349;28;20030;-69
2022/07/19 00:30:39;;;;;;;9.05;1.70;;;;;;;-144.47;42.67;53070.59;4976355;28;20558;-66
2022/07/19 00:33:08;;;;;;;8.32;2.10;;;;;;;-144.47;42.79;53072.59;4982606;28;20023;-67
2022/07/19 00:35:34;;;;;;;7.25;1.80;;;;;;;-144.47;42.84;53066.63;4982710;28;20018;-69
2022/07/19 00:38:07;;;;;;;8.45;1.77;;;;;;;-144.47;43.01;53116.28;4982371;28;20547;-67
2022/07/19 00:40:33;;;;;;;6.28;2.00;;;;;;;-144.47;43.35;53058.69;4970566;28;20033;-68
2022/07/19 00:42:58;;;;;;;9.68;1.85;;;;;;;-144.47;43.32;53046.75;4982437;28;20027;-68
2022/07/19 00:45:23;;;;;;;3.92;1.65;;;;;;;-144.47;43.55;53024.91;4969714;28;20022;-69
2022/07/19 00:47:49;;;;;;;9.63;1.80;;;;;;;-144.47;43.52;53013.00;4987309;28;20037;-69
2022/07/19 00:50:14;;;;;;;9.70;2.13;;;;;;;-144.47;43.85;53060.66;4974358;28;20062;-70
2022/07/19 00:52:40;;;;;;;8.32;1.67;;;;;;;-144.47;44.06;53054.72;4969718;28;20154;-66
2022/07/19 00:55:08;;;;;;;6.72;1.60;;;;;;;-144.47;44.08;53070.59;4970353;28;20368;-67
2022/07/19 00:57:37;;;;;;;4.32;2.03;;;;;;;-144.47;44.13;53048.75;4981978;28;20027;-69
2022/07/19 01:00:04;;;;;;;8.73;2.03;;;;;;;-144.47;44.42;53060.66;4981807;28;20285;-68
2022/07/19 01:02:31;;;;;;;9.45;1.80;;;;;;;-144.47;44.45;53080.53;4980972;28;20050;-67
2022/07/19 01:04:57;;;;;;;7.40;2.10;;;;;;;-144.47;44.38;53088.47;4973617;28;20031;-67
2022/07/19 01:07:22;;;;;;;8.18;2.10;;;;;;;-144.47;44.58;53034.84;4980739;28;20341;-68
2022/07/19 01:09:48;;;;;;;8.80;1.92;;;;;;;-144.47;44.58;53015.00;4982503;28;20304;-67
2022/07/19 01:12:14;;;;;;;8.73;1.98;;;;;;;-144.47;44.54;53046.75;4989077;28;20026;-69
2022/07/19 01:14:40;;;;;;;5.68;1.80;;;;;;;-144.47;44.79;53092.44;4975563;28;20514;-67
2022/07/19 01:17:05;;;;;;;5.40;1.60;;;;;;;-144.47;44.83;53056.69;4979138;28;20121;-69
2022/07/19 01:19:30;;;;;;;7.13;1.73;;;;;;;-144.47;44.93;53072.59;4968409;28;20034;-67
2022/07/19 01:21:56;;;;;;;6.05;1.75;;;;;;;-144.47;45.11;53064.66;4981942;28;20093;-67
2022/07/19 01:24:21;;;;;;;9.38;1.67;;;;;;;-144.47;45.10;53106.34;4982668;28;20026;-69
2022/07/19 01:26:47;;;;;;;5.68;1.58;;;;;;;-144.47;45.16;53088.47;4986286;28;20018;-66
2022/07/19 01:29:16;;;;;;;5.07;1.70;;;;;;;-144.47;45.23;53038.81;4976233;28;20417;-68
2022/07/19 01:31:41;;;;;;;5.07;1.50;;;;;;;-144.47;45.39;53086.50;4975632;28;20110;-69
2022/07/19 01:34:07;;;;;;;4.72;1.60;;;;;;;-144.47;45.35;53090.47;4983816;28;20110;-67
2022/07/19 01:36:32;;;;;;;4.00;1.70;;;;;;;-144.47;45.44;53080.53;4974571;28;20023;-69
2022/07/19 01:38:57;;;;;;;4.93;1.80;;;;;;;-144.47;45.55;53072.59;4986605;28;20567;-69
2022/07/19 01:41:23;;;;;;;10.80;2.00;;;;;;;-144.47;45.44;53068.63;4975880;28;20525;-69
2022/07/19 01:43:48;;;;;;;7.20;2.15;;;;;;;-144.47;45.75;53072.59;4982063;28;20041;-70
2022/07/19 01:46:14;;;;;;;5.32;1.48;;;;;;;-144.47;45.63;53074.56;4968586;28;20033;-69
2022/07/19 01:48:39;;;;;;;9.80;2.63;;;;;;;-144.47;45.75;53056.69;4978645;28;20022;-68
2022/07/19 01:51:04;;;;;;;4.05;1.80;;;;;;;-144.47;45.93;53038.81;4971597;28;20113;-68
2022/07/19 01:53:30;;;;;;;8.00;1.60;;;;;;;-144.47;45.79;53096.41;4981805;28;20101;-70
2022/07/19 01:55:55;;;;;;;8.30;1.90;;;;;;;-144.47;45.88;53084.50;4969282;28;20031;-67
2022/07/19 01:58:20;;;;;;;10.68;1.80;;;;;;;-144.47;45.95;53064.66;4970546;28;20027;-69
2022/07/19 02:00:46;;;;;;;9.27;2.08;;;;;;;-144.47;46.05;53082.53;4975276;28;20027;-66
2022/07/19 02:03:11;;;;;;;12.45;2.15;;;;;;;-144.47;46.02;53068.63;4972895;28;20041;-69
2022/07/19 02:05:37;;;;;;;6.10;2.03;;;;;;;-144.47;46.21;53082.53;4972566;28;20465;-69
2022/07/19 02:08:02;;;;;;;16.23;2.08;;;;;;;-144.47;46.26;53080.53;4985015;28;20480;-67
2022/07/19 02:10:28;;;;;;;8.25;1.88;;;;;;;-144.47;46.37;53082.53;4973156;28;20038;-67
2022/07/19 02:12:53;;;;;;;5.22;2.08;;;;;;;-144.47;46.40;53064.66;4979089;28;20560;-70
2022/07/19 02:15:19;;;;;;;5.25;1.77;;;;;;;-144.47;46.59;53124.22;4972207;28;20031;-67
2022/07/19 02:17:44;;;;;;;7.60;2.45;;;;;;;-144.47;46.58;53106.34;4984537;28;20037;-67
2022/07/19 02:20:10;;;;;;;4.70;1.60;;;;;;;-144.47;46.78;53092.44;4991677;28;20427;-69
2022/07/19 02:22:36;;;;;;;5.20;1.70;;;;;;;-144.47;46.74;53066.63;4992094;28;20022;-68
2022/07/19 02:25:01;;;;;;;9.20;1.83;;;;;;;-144.47;46.87;53118.28;4972957;28;20637;-70
2022/07/19 02:27:28;;;;;;;8.00;2.15;;;;;;;-144.47;47.17;53078.53;4985084;28;20026;-68
2022/07/19 02:29:54;;;;;;;8.20;1.73;;;;;;;-144.47;47.08;53082.53;4987288;28;20110;-67
2022/07/19 02:32:19;;;;;;;12.35;2.20;;;;;;;-144.47;47.09;53070.59;4972470;28;20256;-69
2022/07/19 02:34:45;;;;;;;5.35;2.28;;;;;;;-144.47;47.09;53042.78;4977809;28;20607;-66
2022/07/19 02:37:10;;;;;;;11.13;2.28;;;;;;;-144.47;47.35;53078.53;4978385;28;20033;-69
2022/07/19 02:39:35;;;;;;;8.65;2.25;;;;;;;-144.47;47.59;53076.56;4972283;28;20026;-66
2022/07/19 02:42:01;;;;;;;6.13;2.13;;;;;;;-144.47;47.57;53070.59;4985210;28;20027;-68
2022/07/19 02:44:26;;;;;;;10.27;1.90;;;;;;;-144.47;47.71;53082.53;4973709;28;20340;-66
2022/07/19 02:46:52;;;;;;;6.05;1.80;;;;;;;-144.47;47.73;53094.44;4984085;28;20036;-69
2022/07/19 02:49:17;;;;;;;8.30;2.13;;;;;;;-144.47;47.77;53068.63;4976937;28;20026;-68
2022/07/19 02:51:43;;;;;;;8.27;2.15;;;;;;;-144.47;47.87;53090.47;4991397;28;20058;-68
2022/07/19 02:54:08;;;;;;;7.00;2.10;;;;;;;-144.47;47.92;53088.47;4973286;28;20364;-68
2022/07/19 02:56:35;;;;;;;9.23;1.77;;;;;;;-144.47;47.94;53082.53;4982074;28;20751;-66
2022/07/19 02:59:02;;;;;;;5.57;1.75;;;;;;;-144.47;48.09;53092.44;4976225;28;20022;-68
2022/07/19 03:01:29;;;;;;;10.23;2.30;;;;;;;-144.47;48.07;53074.56;4991265;28;20018;-70
2022/07/19 03:03:54;;;;;;;5.72;1.88;;;;;;;-144.47;48.23;53066.63;4981365;28;20030;-68
2022/07/19 03:06:20;;;;;;;9.93;2.00;;;;;;;-144.47;48.33;53110.31;4978427;28;20023;-67
2022/07/19 03:08:46;;;;;;;7.72;2.30;;;;;;;-144.47;48.23;53060.66;4977380;28;20412;-67
2022/07/19 03:11:11;;;;;;;11.98;2.10;;;;;;;-144.47;48.33;53104.38;4978533;28;20433;-67
2022/07/19 03:13:37;;;;;;;14.48;2.35;;;;;;;-144.47;48.37;53094.44;4971610;28;20350;-68
2022/07/19 03:16:02;;;;;;;11.63;2.10;;;;;;;-144.47;48.56;53112.31;4985795;28;20483;-67
2022/07/19 03:21:00;;;;;;;7.30;2.08;;;;;;;-144.47;48.44;53084.50;5009358;23;20182;-68
2022/07/19 03:23:27;;;;;;;8.57;1.80;;;;;;;-144.47;48.31;53080.53;4992127;28;20741;-67
2022/07/19 03:25:52;;;;;;;8.20;2.28;;;;;;;-144.47;48.47;53068.63;4978872;28;20412;-67
2022/07/19 03:28:18;;;;;;;20.00;2.70;;;;;;;-144.47;48.30;53084.50;4979487;28;20022;-67
2022/07/19 03:30:44;;;;;;;7.85;2.13;;;;;;;-144.47;48.41;53088.47;4978510;28;20035;-66
2022/07/19 03:33:10;;;;;;;4.40;1.52;;;;;;;-144.47;47.93;53106.34;4998800;28;20052;-68
2022/07/19 03:35:36;;;;;;;13.60;2.50;;;;;;;-144.47;47.85;53116.28;5010609;28;20045;-67
2022/07/19 03:38:01;;;;;;;6.88;1.90;;;;;;;-144.47;47.78;53110.31;4982593;28;20133;-69
2022/07/19 03:40:27;;;;;;;4.65;2.03;;;;;;;-144.47;47.81;53096.41;4999058;28;20054;-64
2022/07/19 03:42:52;;;;;;;5.25;1.80;;;;;;;-144.47;47.60;53108.34;5004770;28;20117;-67
2022/07/19 03:45:17;;;;;;;14.05;2.17;;;;;;;-144.47;47.59;53102.38;5004170;28;20100;-66
2022/07/19 03:47:43;;;;;;;20.70;3.35;;;;;;;-144.47;47.70;53112.31;4996277;28;20105;-68
2022/07/19 03:50:08;;;;;;;8.35;2.33;;;;;;;-144.47;47.62;53126.22;4990825;28;20030;-66
2022/07/19 03:52:34;;;;;;;10.02;1.98;;;;;;;-144.47;47.57;53096.41;4997186;28;20134;-68
2022/07/19 03:54:59;;;;;;;8.35;2.08;;;;;;;-144.47;47.47;53126.22;4998395;28;20029;-66
2022/07/19 03:57:24;;;;;;;10.07;1.90;;;;;;;-144.47;47.54;53104.38;4996789;28;20506;-64
2022/07/19 03:59:50;;;;;;;13.80;2.65;;;;;;;-144.47;47.29;53114.31;5010760;28;20072;-67
2022/07/19 04:02:15;;;;;;;11.20;2.53;;;;;;;-144.47;47.23;53130.19;5003946;28;20022;-66
2022/07/19 04:04:40;;;;;;;6.65;2.20;;;;;;;-144.47;47.23;53110.31;4978881;28;20054;-65
2022/07/19 04:07:06;;;;;;;6.38;2.15;;;;;;;-144.47;47.31;53130.19;4978188;28;20121;-65
2022/07/19 04:09:31;;;;;;;12.85;2.80;;;;;;;-144.47;47.32;53094.44;5002417;28;20159;-65
2022/07/19 04:11:56;;;;;;;8.25;2.10;;;;;;;-144.47;47.05;53082.53;4978671;28;20197;-66
2022/07/19 04:14:22;;;;;;;11.82;2.75;;;;;;;-144.47;46.87;53092.44;4986495;28;20492;-65
2022/07/19 04:16:47;;;;;;;6.28;2.03;;;;;;;-144.47;46.63;53112.31;4998832;28;20031;-66
2022/07/19 04:19:12;;;;;;;9.32;2.38;;;;;;;-144.47;46.50;53114.31;4996253;28;20041;-65
2022/07/19 04:21:38;;;;;;;5.55;2.55;;;;;;;-144.47;46.32;53074.56;4991911;28;20038;-65
2022/07/19 04:24:04;;;;;;;8.00;2.95;;;;;;;-144.47;46.29;53078.53;5003303;28;20128;-68
2022/07/19 04:26:29;;;;;;;6.47;1.92;;;;;;;-144.47;46.22;53096.41;5005032;28;20470;-64
2022/07/19 04:28:54;;;;;;;9.93;2.08;;;;;;;-144.47;46.29;53124.22;5002339;28;20493;-66
2022/07/19 04:31:20;;;;;;;7.82;2.03;;;;;;;-144.47;46.41;53126.22;5000385;28;20026;-67
2022/07/19 04:33:45;;;;;;;7.63;2.20;;;;;;;-144.47;46.33;53100.41;4983673;28;20027;-65
2022/07/19 04:36:10;;;;;;;12.82;2.17;;;;;;;-144.47;46.44;53066.63;4990665;28;20037;-67
2022/07/19 04:38:36;;;;;;;4.50;1.70;;;;;;;-144.47;46.16;53092.44;5001492;28;20029;-66
2022/07/19 04:41:01;;;;;;;10.48;2.50;;;;;;;-144.47;46.27;53082.53;4996366;28;20368;-65
2022/07/19 04:43:26;;;;;;;9.38;2.33;;;;;;;-144.47;46.21;53086.50;4988258;28;20029;-64
2022/07/19 04:45:52;;;;;;;7.15;2.17;;;;;;;-144.47;46.07;53146.09;5001568;28;20026;-67
2022/07/19 04:48:17;;;;;;;10.65;2.47;;;;;;;-144.47;46.12;53064.66;4978393;28;20022;-64
2022/07/19 04:50:43;;;;;;;6.57;2.08;;;;;;;-144.47;46.06;53108.34;4987631;28;20030;-67
2022/07/19 04:53:08;;;;;;;13.63;2.92;;;;;;;-144.47;46.05;53064.66;5005487;28;20084;-67
2022/07/19 04:55:36;;;;;;;5.40;2.30;;;;;;;-144.47;46.08;53054.72;4981737;28;20366;-67
2022/07/19 04:58:02;;;;;;;8.10;2.10;;;;;;;-144.47;45.83;53060.66;4998493;28;20023;-67
2022/07/19 05:00:27;;;;;;;6.13;2.30;;;;;;;-144.47;45.91;53076.56;4974097;28;20019;-68
2022/07/19 05:02:54;;;;;;;10.32;2.08;;;;;;;-144.47;45.88;53090.47;4974715;28;20027;-68
2022/07/19 05:05:20;;;;;;;8.93;2.55;;;;;;;-144.47;45.82;53066.63;5006216;28;20032;-68
2022/07/19 05:07:45;;;;;;;20.15;4.20;;;;;;;-144.47;45.84;53090.47;5007563;28;20033;-69
2022/07/19 05:10:11;;;;;;;10.60;2.53;;;;;;;-144.47;45.66;53086.50;4979237;28;20113;-68
2022/07/19 05:12:37;;;;;;;9.88;2.05;;;;;;;-144.47;45.63;53080.53;4989937;28;20026;-67
2022/07/19 05:15:04;;;;;;;7.50;2.35;;;;;;;-144.47;45.49;53080.53;4980428;28;20034;-68
2022/07/19 05:17:29;;;;;;;14.02;2.60;;;;;;;-144.47;45.31;53090.47;5004796;28;20030;-68
2022/07/19 05:19:55;;;;;;;8.48;2.45;;;;;;;-144.47;44.90;53044.78;4993805;28;20025;-67
2022/07/19 05:22:22;;;;;;;8.40;2.70;;;;;;;-144.47;44.68;53068.63;4990861;28;20030;-66
2022/07/19 05:24:47;;;;;;;9.32;2.00;;;;;;;-144.47;44.48;53080.53;4990084;28;20026;-69
2022/07/19 05:27:13;;;;;;;13.43;2.30;;;;;;;-144.47;44.39;53064.66;4987270;28;20057;-69
2022/07/19 05:29:38;;;;;;;13.10;2.53;;;;;;;-144.47;44.29;53044.78;5005753;28;20468;-70
2022/07/19 05:32:04;;;;;;;7.97;2.72;;;;;;;-144.47;44.24;53050.75;4989504;28;20424;-67
2022/07/19 05:34:29;;;;;;;6.70;2.45;;;;;;;-144.47;44.11;53078.53;4990247;28;20148;-67
2022/07/19 05:36:55;;;;;;;19.30;3.92;;;;;;;-144.47;43.84;53072.59;4988110;28;20030;-69
2022/07/19 05:39:20;;;;;;;13.18;3.30;;;;;;;-144.47;43.35;53070.59;4979060;28;20019;-67
2022/07/19 05:41:45;;;;;;;10.95;2.63;;;;;;;-144.47;43.44;53034.84;4981164;28;20033;-71
2022/07/19 05:44:11;;;;;;;9.95;2.58;;;;;;;-144.47;43.24;53020.94;4989038;28;20562;-69
2022/07/19 05:46:40;;;;;;;9.95;2.08;;;;;;;-144.47;43.09;53062.66;4981859;28;20034;-69
2022/07/19 05:49:08;;;;;;;7.95;2.38;;;;;;;-144.47;42.86;53094.44;4971013;28;20416;-69
2022/07/19 05:51:34;;;;;;;13.15;2.42;;;;;;;-144.47;42.92;53054.72;4982792;28;20534;-69
2022/07/19 05:54:00;;;;;;;13.18;2.70;;;;;;;-144.47;42.43;53058.69;4987936;28;20023;-68
2022/07/19 05:56:26;;;;;;;16.77;2.53;;;;;;;-144.47;42.17;53050.75;4981511;28;20493;-71
2022/07/19 05:58:51;;;;;;;18.95;2.65;;;;;;;-144.47;42.13;53038.81;4981625;28;20216;-69
2022/07/19 06:01:19;;;;;;;18.27;4.20;;;;;;;-144.47;42.17;53044.78;5007679;28;20096;-69
2022/07/19 06:03:50;;;;;;;16.33;2.90;;;;;;;-144.47;41.92;53050.75;4999111;28;20049;-68
2022/07/19 06:06:18;;;;;;;10.43;2.25;;;;;;;-144.47;41.83;53060.66;4988050;28;20026;-69
2022/07/19 06:08:44;;;;;;;9.27;2.50;;;;;;;-144.47;41.63;53082.53;4988776;28;20026;-72
2022/07/19 06:11:10;;;;;;;20.33;4.10;;;;;;;-144.47;41.56;53042.78;4974961;28;20026;-69
2022/07/19 06:13:36;;;;;;;13.05;2.78;;;;;;;-144.47;41.48;53007.03;4973077;28;20093;-69
2022/07/19 06:16:01;;;;;;;8.18;2.28;;;;;;;-144.47;41.33;53044.78;4970265;28;20089;-68
2022/07/19 06:18:30;;;;;;;16.20;2.67;;;;;;;-144.47;40.83;53054.72;4972264;28;20045;-72
2022/07/19 06:20:55;;;;;;;5.88;2.35;;;;;;;-144.47;39.64;53068.63;4969671;28;20089;-69
2022/07/19 06:23:20;;;;;;;8.55;2.00;;;;;;;-144.47;39.55;53064.66;4972923;28;20030;-70
2022/07/19 06:25:46;;;;;;;9.43;2.38;;;;;;;-144.47;39.64;53050.75;4974301;28;20062;-69
2022/07/19 06:28:11;;;;;;;8.82;2.20;;;;;;;-144.47;38.89;53022.94;4975819;28;20042;-71
2022/07/19 06:30:36;;;;;;;11.38;2.53;;;;;;;-144.47;38.15;53038.81;4972228;28;20415;-70
2022/07/19 06:33:02;;;;;;;7.65;2.22;;;;;;;-144.47;38.29;53034.84;4973392;28;20524;-70
2022/07/19 06:35:27;;;;;;;22.75;3.05;;;;;;;-144.47;37.92;53040.81;4977186;28;20038;-70
2022/07/19 06:37:52;;;;;;;11.75;2.50;;;;;;;-144.47;37.98;53036.84;4975518;28;20162;-70
2022/07/19 06:40:18;;;;;;;12.32;3.45;;;;;;;-144.47;38.23;53040.81;4972475;28;20059;-70
2022/07/19 06:42:43;;;;;;;12.50;3.20;;;;;;;-144.47;38.27;53018.97;4972927;28;20037;-69
2022/07/19 06:45:09;;;;;;;11.82;2.50;;;;;;;-144.47;38.20;53034.84;4978884;28;20037;-70
2022/07/19 06:47:34;;;;;;;11.80;3.45;;;;;;;-144.47;37.61;53009.03;4973087;28;20038;-71
2022/07/19 06:50:00;;;;;;;7.28;2.30;;;;;;;-144.47;37.33;53015.00;4975801;28;20662;-69
2022/07/19 06:52:25;;;;;;;14.25;3.40;;;;;;;-144.47;37.42;53015.00;4979997;28;20824;-71
2022/07/19 06:54:51;;;;;;;6.72;2.30;;;;;;;-144.47;37.30;53016.97;4978030;28;20484;-71
2022/07/19 06:57:16;;;;;;;8.68;2.60;;;;;;;-144.47;37.35;53009.03;4977879;28;20038;-70
2022/07/19 06:59:42;;;;;;;23.15;5.90;;;;;;;-144.47;37.32;53005.06;4974294;28;20030;-71
2022/07/19 07:02:08;;;;;;;9.48;2.58;;;;;;;-144.47;37.17;53024.91;4978225;28;20032;-71
2022/07/19 07:04:33;;;;;;;9.75;2.70;;;;;;;-144.47;36.98;53020.94;4978076;28;20027;-71
2022/07/19 07:06:59;;;;;;;10.00;2.33;;;;;;;-144.47;36.87;53030.88;4973885;28;20031;-67
2022/07/19 07:09:24;;;;;;;17.70;2.65;;;;;;;-144.47;36.86;53013.00;4985507;28;20117;-70
2022/07/19 07:11:50;;;;;;;13.30;2.72;;;;;;;-144.47;36.83;53020.94;5000446;28;20518;-69
2022/07/19 07:14:15;;;;;;;12.30;2.75;;;;;;;-144.47;36.88;53038.81;5011248;28;20021;-69
2022/07/19 07:16:40;;;;;;;13.60;2.38;;;;;;;-144.47;36.65;53007.03;4990769;28;20113;-67
2022/07/19 07:19:06;;;;;;;11.70;2.38;;;;;;;-144.47;36.33;53015.00;5003231;28;20137;-69
2022/07/19 07:21:34;;;;;;;14.05;2.30;;;;;;;-144.47;36.55;52999.09;5003385;28;20026;-69
2022/07/19 07:24:02;;;;;;;14.13;2.45;;;;;;;-144.47;36.08;52995.13;5002970;28;20018;-70
2022/07/19 07:26:28;;;;;;;16.60;2.78;;;;;;;-144.47;35.87;52975.25;4989858;28;20570;-69
2022/07/19 07:28:53;;;;;;;15.57;2.78;;;;;;;-144.47;36.06;53034.84;4992778;28;20058;-69
2022/07/19 07:31:19;;;;;;;16.75;2.53;;;;;;;-144.47;35.82;53022.94;4971973;28;20027;-68
2022/07/19 07:33:44;;;;;;;10.68;2.70;;;;;;;-144.47;35.30;53003.06;4981610;28;20492;-69
2022/07/19 07:36:10;;;;;;;12.48;2.53;;;;;;;-144.47;35.09;53009.03;4984501;28;20034;-68
2022/07/19 07:38:35;;;;;;;8.38;2.25;;;;;;;-144.47;35.03;52991.16;4994901;28;20043;-69
2022/07/19 07:41:00;;;;;;;13.07;2.90;;;;;;;-144.47;34.89;53020.94;4999739;28;20026;-69
2022/07/19 07:43:26;;;;;;;10.38;2.30;;;;;;;-144.47;34.70;52979.22;4992008;28;20102;-69
2022/07/19 07:45:51;;;;;;;8.70;2.35;;;;;;;-144.47;34.57;52961.34;4983391;28;20038;-67
2022/07/19 07:48:17;;;;;;;12.75;2.70;;;;;;;-144.47;34.50;52983.22;4999153;28;20400;-68
2022/07/19 07:50:42;;;;;;;5.95;2.17;;;;;;;-144.47;33.22;52979.22;4978732;28;20062;-68
2022/07/19 07:53:07;;;;;;;8.90;1.95;;;;;;;-144.47;32.75;52975.25;5001461;28;20508;-67
2022/07/19 07:55:38;;;;;;;12.77;2.50;;;;;;;-144.47;31.95;52967.31;5009307;28;20026;-70
2022/07/19 07:58:04;;;;;;;5.93;1.92;;;;;;;-144.47;31.74;52975.25;4998783;28;20023;-69
2022/07/19 08:00:29;;;;;;;11.05;1.98;;;;;;;-144.47;31.68;52969.31;4997841;28;20489;-68
2022/07/19 08:02:55;;;;;;;6.00;2.10;;;;;;;-144.47;31.30;52943.47;4994347;28;20511;-70
2022/07/19 08:05:23;;;;;;;7.50;2.00;;;;;;;-144.47;31.31;52965.34;5005932;28;20509;-68
2022/07/19 08:07:49;;;;;;;9.32;1.95;;;;;;;-144.47;31.24;52951.44;4978764;28;20511;-69
2022/07/19 08:10:15;;;;;;;10.32;2.15;;;;;;;-144.47;31.01;52969.31;4984760;28;20026;-68
2022/07/19 08:12:40;;;;;;;13.52;2.08;;;;;;;-144.47;30.16;52951.44;4992011;28;20615;-69
2022/07/19 08:15:06;;;;;;;4.93;1.77;;;;;;;-144.47;30.04;52931.56;4994561;28;20117;-68
2022/07/19 08:17:32;;;;;;;11.07;2.70;;;;;;;-144.47;29.72;52911.69;5009070;28;20025;-67
2022/07/19 08:19:58;;;;;;;10.88;2.30;;;;;;;-144.47;29.48;52957.38;4979292;28;20044;-69
2022/07/19 08:22:23;;;;;;;11.57;2.15;;;;;;;-144.47;29.52;52947.47;4990809;28;20519;-69
2022/07/19 08:24:49;;;;;;;8.20;2.13;;;;;;;-144.47;29.67;52947.47;4973506;28;20031;-68
2022/07/19 08:27:14;;;;;;;8.50;2.50;;;;;;;-144.47;29.57;52935.53;4995431;28;20030;-67
2022/07/19 08:29:40;;;;;;;9.25;2.10;;;;;;;-144.47;29.21;52947.47;4973605;28;20035;-69
2022/07/19 08:32:06;;;;;;;14.60;2.70;;;;;;;-144.47;29.34;52899.78;4995227;28;20021;-68
2022/07/19 08:34:31;;;;;;;6.95;2.33;;;;;;;-144.47;28.93;52947.47;4985188;28;20042;-67
2022/07/19 08:36:56;;;;;;;10.13;2.10;;;;;;;-144.47;28.75;52903.75;4999146;28;20079;-68
2022/07/19 08:39:22;;;;;;;7.38;1.90;;;;;;;-144.47;28.62;52915.69;4992241;28;20041;-68
2022/07/19 08:41:48;;;;;;;12.18;2.50;;;;;;;-144.47;28.41;52919.66;4979143;28;20281;-67
2022/07/19 08:44:13;;;;;;;5.57;2.13;;;;;;;-144.47;28.08;52911.69;4993394;28;20288;-70
2022/07/19 08:46:41;;;;;;;4.47;1.83;;;;;;;-144.47;28.19;52921.63;4984335;28;20035;-70
2022/07/19 08:49:07;;;;;;;5.43;1.87;;;;;;;-144.47;28.17;52927.59;4971252;28;20062;-70
2022/07/19 08:51:34;;;;;;;5.20;1.83;;;;;;;-144.47;27.92;52925.59;4975405;28;20264;-70
2022/07/19 08:53:59;;;;;;;4.18;1.95;;;;;;;-144.47;27.66;52935.53;4973853;28;20023;-69
2022/07/19 08:59:09;;;;;;;7.13;2.20;;;;;;;-144.47;27.22;52939.50;4972862;28;20037;-68
2022/07/19 09:01:35;;;;;;;8.63;2.15;;;;;;;-144.47;27.24;52891.84;4976804;28;20030;-69
2022/07/19 09:04:10;;;;;;;10.80;2.15;;;;;;;-144.47;27.22;52903.75;4972343;28;20393;-69
2022/07/19 09:06:46;;;;;;;7.85;2.08;;;;;;;-144.47;27.25;52907.72;4970459;28;20030;-67
2022/07/19 09:09:13;;;;;;;5.88;2.15;;;;;;;-144.47;27.37;52927.59;4977578;28;20027;-71
2022/07/19 09:11:48;;;;;;;3.80;2.13;;;;;;;-144.47;27.18;52909.72;4974076;28;20030;-70
2022/07/19 09:14:16;;;;;;;10.65;2.53;;;;;;;-144.47;27.27;52927.59;4973244;28;20034;-70
2022/07/19 09:17:16;;;;;;;14.65;2.88;;;;;;;-144.47;26.91;52935.53;4973231;28;20053;-69
2022/07/19 09:19:44;;;;;;;6.78;2.38;;;;;;;-144.47;26.70;52903.75;4972855;28;20508;-68
2022/07/19 09:22:12;;;;;;;16.52;3.45;;;;;;;-144.47;26.53;52921.63;4972160;28;21208;-67
2022/07/19 09:24:40;;;;;;;17.52;2.65;;;;;;;-144.47;26.81;52917.66;4974429;28;20042;-69
2022/07/19 09:29:40;;;;;;;9.65;2.20;;;;;;;-144.47;26.74;52905.75;4991429;23;20121;-67
2022/07/19 09:32:12;;;;;;;5.15;2.05;;;;;;;-144.47;26.81;52893.81;4971929;28;20624;-67
2022/07/19 09:34:56;;;;;;;6.97;2.00;;;;;;;-144.47;26.39;52907.72;4972628;28;20049;-66
2022/07/19 09:37:27;;;;;;;6.15;2.45;;;;;;;-144.47;26.69;52895.81;4970015;28;20031;-67
2022/07/19 09:39:55;;;;;;;7.53;2.00;;;;;;;-144.47;26.60;52913.69;4977768;28;20042;-65
2022/07/19 09:42:23;;;;;;;11.82;2.33;;;;;;;-144.47;26.51;52893.81;4974303;28;20181;-67
2022/07/19 09:45:04;;;;;;;10.07;2.50;;;;;;;-144.47;26.33;52893.81;4970099;28;20027;-67
2022/07/19 09:47:43;;;;;;;9.48;2.42;;;;;;;-144.47;26.09;52883.91;4962066;28;20470;-66
2022/07/19 09:50:21;;;;;;;7.43;2.30;;;;;;;-144.47;26.14;52866.03;4968390;28;20035;-65
2022/07/19 09:52:49;;;;;;;13.18;2.72;;;;;;;-144.47;25.81;52887.88;4977480;28;20041;-66
2022/07/19 09:55:16;;;;;;;6.63;2.00;;;;;;;-144.47;25.91;52937.53;4980069;28;20038;-66
2022/07/19 09:57:49;;;;;;;6.03;2.30;;;;;;;-144.47;25.84;52889.84;4972234;28;20569;-66
2022/07/19 10:00:22;;;;;;;11.60;2.60;;;;;;;-144.47;25.74;52887.88;4978774;28;20032;-68
2022/07/19 10:02:59;;;;;;;10.80;2.53;;;;;;;-144.47;25.51;52832.25;4993456;28;20519;-66
2022/07/19 10:05:26;;;;;;;6.60;2.27;;;;;;;-144.47;25.56;52866.03;4991425;28;20049;-66
2022/07/19 10:07:53;;;;;;;13.23;2.83;;;;;;;-144.47;25.65;52895.81;4991978;28;20089;-68
2022/07/19 10:10:20;;;;;;;6.22;1.90;;;;;;;-144.47;25.22;52875.94;4993087;28;20121;-68
2022/07/19 10:12:47;;;;;;;10.50;2.50;;;;;;;-144.47;25.12;52891.84;4995082;28;20406;-67
2022/07/19 10:15:16;;;;;;;12.50;2.60;;;;;;;-144.47;25.04;52871.97;4987650;28;20026;-66
2022/07/19 10:17:47;;;;;;;;;;;;;;;-144.47;24.98;52891.84;4979641;28;20040;-66
2022/07/19 10:20:18;;;;;;;9.40;2.25;;;;;;;-144.47;25.03;52889.84;4972390;28;19986;-67
2022/07/19 10:22:45;;;;;;;13.43;2.40;;;;;;;-144.47;24.89;52846.16;4986850;28;20049;-68
2022/07/19 10:25:13;;;;;;;10.38;2.10;;;;;;;-144.47;24.95;52862.06;4986037;28;20050;-68
2022/07/19 10:27:44;;;;;;;5.95;2.05;;;;;;;-144.47;24.64;52881.91;4986194;28;20589;-65
2022/07/19 10:30:09;;;;;;;5.10;1.85;;;;;;;-144.47;24.55;52854.09;4982555;28;20034;-66
2022/07/19 10:32:35;;;;;;;11.88;2.47;;;;;;;-144.47;24.01;52873.97;4979844;28;20536;-69
2022/07/19 10:35:16;;;;;;;10.70;2.10;;;;;;;-144.47;23.80;52846.16;4981630;28;20158;-67
2022/07/19 10:37:43;;;;;;;8.98;1.88;;;;;;;-144.47;23.90;52883.91;4976436;28;20031;-66
2022/07/19 10:40:09;;;;;;;8.40;2.05;;;;;;;-144.47;24.17;52842.19;4980139;28;20404;-65
2022/07/19 10:42:34;;;;;;;7.53;2.05;;;;;;;-144.47;24.03;52871.97;4989582;28;20034;-69
2022/07/19 10:45:00;;;;;;;10.23;1.85;;;;;;;-144.47;24.06;52844.19;4980015;28;20106;-67
2022/07/19 10:47:57;;;;;;;8.85;2.30;;;;;;;-144.47;24.34;52883.91;4971083;28;20029;-69
2022/07/19 10:50:24;;;;;;;6.90;2.25;;;;;;;-144.47;24.20;52836.22;4973285;28;20027;-67
2022/07/19 10:52:49;;;;;;;5.80;1.67;;;;;;;-144.47;23.97;52866.03;4981687;28;20034;-69
2022/07/19 10:55:18;;;;;;;13.88;2.30;;;;;;;-144.47;24.14;52875.94;4987265;28;20061;-66
2022/07/19 10:57:46;;;;;;;6.85;2.30;;;;;;;-144.47;23.97;52846.16;4975338;28;20104;-67
2022/07/19 11:00:19;;;;;;;6.78;2.00;;;;;;;-144.47;24.08;52864.03;4974117;28;20034;-67
2022/07/19 11:02:45;;;;;;;6.07;2.10;;;;;;;-144.47;23.72;52858.06;4977873;28;20503;-69
2022/07/19 11:05:21;;;;;;;8.93;2.22;;;;;;;-144.47;23.96;52858.06;4974735;28;20031;-68
2022/07/19 11:07:48;;;;;;;4.22;2.20;;;;;;;-144.47;23.48;52844.19;4971810;28;20057;-67
2022/07/19 11:10:22;;;;;;;10.65;2.50;;;;;;;-144.47;23.50;52881.91;4975929;28;20081;-68
2022/07/19 11:12:47;;;;;;;4.75;1.88;;;;;;;-144.47;23.63;52828.28;4984372;28;20049;-67
2022/07/19 11:15:13;;;;;;;7.88;2.00;;;;;;;-144.47;23.70;52822.31;4983003;28;20042;-69
2022/07/19 11:17:39;;;;;;;6.82;2.45;;;;;;;-144.47;23.40;52850.13;4971693;28;20263;-66
2022/07/19 11:20:10;;;;;;;7.22;2.45;;;;;;;-144.47;23.38;52846.16;4974680;28;20041;-69